Time;durP1;ratioP1;P1;durP2;ratioP2;P2;SDS_P1;SDS_P2;PMS_P1;PMS_P2;Temp;Humidity;BMP_temperature;BMP_pressure;BME280_temperature;BME280_humidity;BME280_pressure;Samples;Min_cycle;Max_cycle;Signal;HPM_P1;HPM_P2
2022/10/17 00:00:12;;;;;;;5.78;1.90;;;17.60;99.90;;;;;;5095380;28;20288;-83
2022/10/17 00:02:44;;;;;;;5.03;1.60;;;17.60;99.90;;;;;;5089064;28;20257;-82
2022/10/17 00:05:20;;;;;;;8.70;1.90;;;17.60;99.90;;;;;;5101940;28;20215;-84
2022/10/17 00:07:51;;;;;;;5.93;1.90;;;17.70;99.90;;;;;;5103948;28;20273;-84
2022/10/17 00:10:23;;;;;;;5.05;1.95;;;17.60;99.90;;;;;;5098675;28;20547;-85
2022/10/17 00:12:56;;;;;;;4.43;1.48;;;17.70;99.90;;;;;;5102348;28;20213;-85
2022/10/17 00:15:28;;;;;;;4.85;1.80;;;17.80;99.90;;;;;;5100585;28;20234;-85
2022/10/17 00:18:00;;;;;;;7.38;2.20;;;17.80;99.90;;;;;;5095713;28;20192;-84
2022/10/17 00:20:39;;;;;;;6.82;1.70;;;17.80;99.90;;;;;;5095142;28;20205;-84
2022/10/17 00:23:11;;;;;;;6.60;1.77;;;17.90;99.90;;;;;;5096396;28;20214;-84
2022/10/17 00:25:42;;;;;;;6.70;2.08;;;18.10;99.90;;;;;;5095554;28;20226;-84
2022/10/17 00:28:13;;;;;;;8.63;2.03;;;18.30;99.90;;;;;;5072368;28;20204;-84
2022/10/17 00:30:45;;;;;;;8.23;1.85;;;18.30;99.90;;;;;;5087811;28;20199;-84
2022/10/17 00:33:15;;;;;;;4.35;1.48;;;18.40;99.90;;;;;;5104753;28;20203;-84
2022/10/17 00:35:53;;;;;;;4.55;1.55;;;18.50;99.90;;;;;;5087210;28;20203;-85
2022/10/17 00:38:24;;;;;;;5.93;1.67;;;18.80;99.90;;;;;;5085075;28;20192;-84
2022/10/17 00:40:56;;;;;;;6.20;2.47;;;18.90;99.90;;;;;;5084907;28;20204;-85
2022/10/17 00:43:28;;;;;;;7.72;2.13;;;19.00;99.90;;;;;;5085869;28;20625;-83
2022/10/17 00:46:00;;;;;;;4.40;1.52;;;19.00;99.90;;;;;;5082798;28;20289;-84
2022/10/17 00:48:32;;;;;;;6.22;1.75;;;19.00;99.90;;;;;;5082152;28;20188;-84
2022/10/17 00:51:09;;;;;;;5.85;1.38;;;18.90;99.90;;;;;;5083340;28;20200;-84
2022/10/17 00:53:43;;;;;;;7.05;1.40;;;18.90;99.90;;;;;;5099397;28;20258;-84
2022/10/17 00:56:14;;;;;;;5.18;1.40;;;19.00;99.90;;;;;;5094901;28;20202;-84
2022/10/17 00:58:49;;;;;;;3.60;1.40;;;19.00;99.90;;;;;;5075315;28;20298;-90
2022/10/17 01:01:20;;;;;;;7.40;1.35;;;19.00;99.90;;;;;;5073680;28;20684;-88
2022/10/17 01:03:51;;;;;;;4.13;1.13;;;19.00;99.90;;;;;;5088227;28;20202;-88
2022/10/17 01:06:27;;;;;;;4.68;1.20;;;18.90;99.90;;;;;;5115268;28;20231;-86
2022/10/17 01:09:00;;;;;;;8.38;1.65;;;18.90;99.90;;;;;;5103880;28;20195;-86
2022/10/17 01:11:41;;;;;;;6.15;1.63;;;18.90;99.90;;;;;;5069749;28;20344;-87
2022/10/17 01:14:25;;;;;;;4.13;1.23;;;18.80;99.90;;;;;;5090799;28;20195;-86
2022/10/17 01:17:05;;;;;;;6.45;1.40;;;18.90;99.90;;;;;;5086547;28;20270;-88
2022/10/17 01:19:54;;;;;;;4.35;1.40;;;19.00;99.90;;;;;;5091836;28;20229;-87
2022/10/17 01:22:35;;;;;;;3.72;1.30;;;19.10;99.90;;;;;;5073466;28;20199;-87
2022/10/17 01:25:25;;;;;;;5.22;1.33;;;19.20;99.90;;;;;;5074615;28;20261;-88
2022/10/17 01:28:12;;;;;;;3.85;1.15;;;19.20;99.90;;;;;;5090183;28;20206;-87
2022/10/17 01:31:13;;;;;;;4.95;1.25;;;19.30;99.90;;;;;;5088405;28;20203;-86
2022/10/17 01:33:53;;;;;;;6.75;1.10;;;19.20;99.90;;;;;;5078881;28;20269;-86
2022/10/17 01:36:37;;;;;;;6.43;1.38;;;19.20;99.90;;;;;;5095542;28;20210;-85
2022/10/17 01:39:18;;;;;;;4.90;1.42;;;19.30;99.90;;;;;;5092003;28;20275;-86
2022/10/17 01:41:54;;;;;;;4.88;1.35;;;19.30;99.90;;;;;;5097447;28;20351;-85
2022/10/17 01:44:30;;;;;;;4.32;1.40;;;19.40;99.90;;;;;;5077328;28;20200;-86
2022/10/17 01:47:07;;;;;;;5.30;1.30;;;19.50;99.90;;;;;;5090914;28;20581;-86
2022/10/17 01:49:40;;;;;;;10.45;1.52;;;19.60;99.90;;;;;;5103647;28;20567;-87
2022/10/17 01:52:15;;;;;;;3.53;1.17;;;19.70;99.90;;;;;;5097741;28;20187;-87
2022/10/17 01:54:52;;;;;;;5.63;1.63;;;19.80;99.90;;;;;;5095735;28;20219;-88
2022/10/17 01:57:30;;;;;;;3.58;1.35;;;19.80;99.90;;;;;;5074523;28;20347;-89
2022/10/17 02:00:02;;;;;;;5.72;1.30;;;19.80;99.90;;;;;;5091206;28;20207;-88
2022/10/17 02:02:38;;;;;;;3.08;1.20;;;19.90;99.90;;;;;;5090633;28;20191;-87
2022/10/17 02:05:12;;;;;;;3.47;1.35;;;20.10;99.90;;;;;;5084957;28;20312;-86
2022/10/17 02:07:45;;;;;;;4.85;1.00;;;20.30;99.90;;;;;;5087516;28;20239;-85
2022/10/17 02:10:34;;;;;;;5.85;1.42;;;20.30;99.90;;;;;;5100858;28;20226;-87
2022/10/17 02:13:13;;;;;;;4.30;1.48;;;20.20;99.90;;;;;;5097154;28;20286;-85
2022/10/17 02:16:15;;;;;;;3.88;1.20;;;20.10;99.90;;;;;;5101081;28;20309;-86
2022/10/17 02:19:09;;;;;;;3.78;1.30;;;20.10;99.90;;;;;;5091338;28;20206;-84
2022/10/17 02:21:48;;;;;;;3.20;1.52;;;20.20;99.90;;;;;;5093779;28;20195;-88
2022/10/17 02:24:27;;;;;;;4.15;1.20;;;20.20;99.90;;;;;;5080160;28;20203;-88
2022/10/17 02:27:06;;;;;;;5.45;1.33;;;20.20;99.90;;;;;;5094254;28;20214;-86
2022/10/17 02:29:45;;;;;;;3.72;1.10;;;20.20;99.90;;;;;;5094744;28;20202;-85
2022/10/17 02:32:21;;;;;;;4.28;1.10;;;20.20;99.90;;;;;;5094206;28;20207;-86
2022/10/17 02:34:57;;;;;;;3.22;1.20;;;20.10;99.90;;;;;;5092107;28;20287;-85
2022/10/17 02:37:30;;;;;;;4.25;1.13;;;20.20;99.90;;;;;;5073971;28;20226;-86
2022/10/17 02:40:03;;;;;;;5.38;1.40;;;20.20;99.90;;;;;;5089685;28;20722;-85
2022/10/17 02:42:35;;;;;;;6.80;1.42;;;20.30;99.90;;;;;;5082090;28;20192;-85
2022/10/17 02:45:07;;;;;;;7.20;1.30;;;20.30;99.90;;;;;;5083081;28;20192;-85
2022/10/17 02:47:45;;;;;;;6.03;1.50;;;20.30;99.90;;;;;;5094366;28;20290;-87
2022/10/17 02:50:18;;;;;;;6.13;1.40;;;20.30;99.90;;;;;;5094479;28;20187;-86
2022/10/17 02:52:54;;;;;;;3.20;1.10;;;20.30;99.90;;;;;;5092082;28;20195;-87
2022/10/17 02:55:32;;;;;;;4.65;1.10;;;20.30;99.90;;;;;;5091031;28;20718;-86
2022/10/17 02:58:07;;;;;;;4.70;1.25;;;20.50;99.90;;;;;;5096199;28;20712;-87
2022/10/17 03:00:39;;;;;;;7.07;1.40;;;21.00;99.90;;;;;;5114888;28;20205;-87
2022/10/17 03:03:24;;;;;;;4.10;1.15;;;21.20;99.90;;;;;;5112983;28;20226;-87
2022/10/17 03:05:58;;;;;;;5.80;1.48;;;21.10;99.90;;;;;;5085156;28;20214;-87
2022/10/17 03:08:29;;;;;;;9.82;1.40;;;20.90;99.90;;;;;;5093955;28;20753;-86
2022/10/17 03:11:01;;;;;;;5.85;1.30;;;20.80;99.90;;;;;;5088766;28;20191;-86
2022/10/17 03:13:32;;;;;;;6.75;1.20;;;20.80;99.90;;;;;;5089038;28;20199;-86
2022/10/17 03:16:05;;;;;;;5.32;1.10;;;20.80;99.90;;;;;;5107970;28;20233;-87
2022/10/17 03:18:36;;;;;;;7.18;1.60;;;20.80;99.90;;;;;;5104600;28;20649;-87
2022/10/17 03:21:10;;;;;;;6.13;1.52;;;20.70;99.90;;;;;;5070948;28;20219;-86
2022/10/17 03:23:41;;;;;;;5.25;1.40;;;20.60;99.90;;;;;;5094041;28;20203;-87
2022/10/17 03:26:13;;;;;;;4.93;1.70;;;20.50;99.90;;;;;;5095491;28;20670;-87
2022/10/17 03:28:50;;;;;;;6.47;1.50;;;20.40;99.90;;;;;;5079889;28;21083;-87
2022/10/17 03:31:25;;;;;;;7.80;1.30;;;20.30;99.90;;;;;;5090097;28;20608;-88
2022/10/17 03:34:01;;;;;;;5.95;1.38;;;20.20;99.90;;;;;;5093037;28;20198;-84
2022/10/17 03:36:42;;;;;;;6.03;1.35;;;20.20;99.90;;;;;;5103404;28;20179;-85
2022/10/17 03:39:16;;;;;;;4.25;1.20;;;20.20;99.90;;;;;;5084084;28;20222;-86
2022/10/17 03:41:54;;;;;;;5.60;1.10;;;20.20;99.90;;;;;;5082968;28;20188;-87
2022/10/17 03:44:32;;;;;;;7.22;1.40;;;20.20;99.90;;;;;;5102382;28;20206;-84
2022/10/17 03:47:06;;;;;;;7.57;1.80;;;20.30;99.90;;;;;;5110998;28;20238;-86
2022/10/17 03:50:20;;;;;;;5.47;1.33;;;20.20;99.90;;;;;;5094226;28;20200;-86
2022/10/17 03:52:57;;;;;;;7.53;1.45;;;20.20;99.90;;;;;;5100705;28;20215;-87
2022/10/17 03:55:29;;;;;;;6.13;1.48;;;20.20;99.90;;;;;;5086802;28;20678;-87
2022/10/17 03:58:10;;;;;;;5.47;1.20;;;20.10;99.90;;;;;;5081786;28;20259;-88
2022/10/17 04:00:41;;;;;;;5.13;1.25;;;20.20;99.90;;;;;;5104174;28;20199;-86
2022/10/17 04:06:01;;;;;;;6.00;1.20;;;20.20;99.90;;;;;;5095569;28;20658;-86
2022/10/17 04:08:39;;;;;;;7.70;1.30;;;20.30;99.90;;;;;;5099224;28;20562;-87
2022/10/17 04:11:14;;;;;;;5.80;1.30;;;20.90;99.90;;;;;;5100507;28;20227;-87
2022/10/17 04:13:51;;;;;;;5.30;1.30;;;21.20;99.90;;;;;;5105782;28;20564;-86
2022/10/17 04:16:26;;;;;;;5.97;1.30;;;21.40;99.90;;;;;;5105855;28;20368;-84
2022/10/17 04:19:01;;;;;;;5.65;1.15;;;21.30;99.90;;;;;;5099228;28;20701;-85
2022/10/17 04:24:21;;;;;;;3.72;1.20;;;20.90;99.90;;;;;;5095556;28;20306;-85
2022/10/17 04:27:08;;;;;;;5.45;1.10;;;20.70;99.90;;;;;;5112545;28;20284;-86
2022/10/17 04:30:12;;;;;;;5.88;1.30;;;20.40;99.90;;;;;;5101923;28;20200;-88
2022/10/17 04:32:58;;;;;;;9.02;1.63;;;20.20;99.90;;;;;;5098088;28;20195;-85
2022/10/17 04:35:33;;;;;;;8.38;1.35;;;20.20;99.90;;;;;;5077125;28;20307;-86
2022/10/17 04:38:04;;;;;;;5.18;1.20;;;20.10;99.90;;;;;;5081826;28;20199;-85
2022/10/17 04:40:37;;;;;;;5.03;1.05;;;20.10;99.90;;;;;;5097167;28;20214;-86
2022/10/17 04:43:08;;;;;;;5.47;1.17;;;20.00;99.90;;;;;;5096924;28;20246;-84
2022/10/17 04:45:41;;;;;;;5.43;1.40;;;20.10;99.90;;;;;;5099551;28;20213;-85
2022/10/17 04:48:14;;;;;;;5.60;1.10;;;20.00;99.90;;;;;;5100243;28;20211;-87
2022/10/17 04:50:55;;;;;;;4.93;1.20;;;20.00;99.90;;;;;;5099779;28;20221;-86
2022/10/17 04:53:27;;;;;;;6.22;1.20;;;20.10;99.90;;;;;;5090103;28;20286;-86
2022/10/17 04:56:02;;;;;;;4.00;1.00;;;20.00;99.90;;;;;;5081380;28;20726;-87
2022/10/17 04:58:34;;;;;;;6.10;1.20;;;20.00;99.90;;;;;;5082358;28;20313;-87
2022/10/17 05:01:08;;;;;;;8.20;1.60;;;20.00;99.90;;;;;;5084162;28;20199;-85
2022/10/17 05:03:40;;;;;;;6.13;1.23;;;19.90;99.90;;;;;;5095906;28;20199;-85
2022/10/17 05:06:12;;;;;;;3.03;1.00;;;19.90;99.90;;;;;;5090809;28;20278;-84
2022/10/17 05:08:45;;;;;;;6.72;1.50;;;19.90;99.90;;;;;;5091713;28;20639;-85
2022/10/17 05:11:24;;;;;;;7.88;1.30;;;19.90;99.90;;;;;;5091032;28;20206;-84
2022/10/17 05:13:57;;;;;;;7.57;1.27;;;19.90;99.90;;;;;;5086952;28;20196;-84
2022/10/17 05:16:29;;;;;;;5.60;1.48;;;19.90;99.90;;;;;;5072873;28;20227;-83
2022/10/17 05:19:02;;;;;;;7.20;1.48;;;19.90;99.90;;;;;;5078364;28;20222;-85
2022/10/17 05:21:33;;;;;;;5.03;1.40;;;19.90;99.90;;;;;;5093279;28;20195;-84
2022/10/17 05:24:07;;;;;;;4.63;1.00;;;19.80;99.90;;;;;;5086726;28;20206;-84
2022/10/17 05:26:40;;;;;;;7.25;1.23;;;19.80;99.90;;;;;;5101864;28;20247;-85
2022/10/17 05:29:11;;;;;;;6.00;1.25;;;19.70;99.90;;;;;;5095952;28;20199;-85
2022/10/17 05:31:42;;;;;;;5.18;1.30;;;19.70;99.90;;;;;;5082371;28;20211;-85
2022/10/17 05:34:13;;;;;;;4.88;1.27;;;19.70;99.90;;;;;;5093622;28;20191;-86
2022/10/17 05:36:46;;;;;;;3.78;1.00;;;19.70;99.90;;;;;;5092328;28;20199;-86
2022/10/17 05:39:18;;;;;;;5.50;1.27;;;19.70;99.90;;;;;;5090356;28;20205;-85
2022/10/17 05:41:51;;;;;;;3.58;1.20;;;19.70;99.90;;;;;;5086736;28;20215;-86
2022/10/17 05:44:22;;;;;;;3.40;0.95;;;19.80;99.90;;;;;;5079395;28;20616;-86
2022/10/17 05:46:56;;;;;;;5.03;1.13;;;19.80;99.90;;;;;;5090438;28;20685;-86
2022/10/17 05:49:28;;;;;;;4.80;1.00;;;19.90;99.90;;;;;;5091734;28;20195;-87
2022/10/17 05:52:03;;;;;;;4.82;1.00;;;20.00;99.90;;;;;;5097310;28;20700;-87
2022/10/17 05:54:33;;;;;;;4.43;1.17;;;20.10;99.90;;;;;;5094720;28;20240;-86
2022/10/17 05:57:06;;;;;;;8.00;1.40;;;20.90;99.90;;;;;;5099233;28;20215;-87
2022/10/17 05:59:39;;;;;;;5.25;1.20;;;21.10;99.90;;;;;;5095417;28;20706;-87
2022/10/17 06:02:14;;;;;;;4.25;1.08;;;21.60;99.90;;;;;;5096386;28;20267;-86
2022/10/17 06:04:47;;;;;;;5.38;1.13;;;21.70;99.90;;;;;;5094814;28;20194;-87
2022/10/17 06:07:18;;;;;;;5.00;1.45;;;21.60;99.90;;;;;;5077899;28;20590;-87
2022/10/17 06:09:50;;;;;;;4.82;1.13;;;21.40;99.90;;;;;;5078917;28;20662;-87
2022/10/17 06:12:26;;;;;;;3.17;1.10;;;21.20;99.90;;;;;;5085969;28;20287;-88
2022/10/17 06:14:57;;;;;;;3.42;1.10;;;21.00;99.90;;;;;;5088431;28;20230;-88
2022/10/17 06:17:29;;;;;;;5.90;1.13;;;21.20;99.90;;;;;;5095945;28;20619;-88
2022/10/17 06:20:01;;;;;;;4.00;1.10;;;21.40;99.90;;;;;;5094238;28;20196;-87
2022/10/17 06:22:32;;;;;;;3.80;0.73;;;21.80;99.90;;;;;;5092578;28;20195;-87
2022/10/17 06:25:03;;;;;;;5.35;1.10;;;21.70;99.90;;;;;;5088864;28;20188;-85
2022/10/17 06:27:36;;;;;;;2.97;0.93;;;22.10;99.90;;;;;;5095014;28;20207;-86
2022/10/17 06:30:08;;;;;;;3.28;1.20;;;22.80;99.90;;;;;;5098346;28;20266;-86
2022/10/17 06:32:39;;;;;;;6.13;1.02;;;22.70;99.90;;;;;;5113700;28;20185;-86
2022/10/17 06:35:11;;;;;;;4.70;0.95;;;23.20;99.90;;;;;;5094016;28;20199;-86
2022/10/17 06:37:42;;;;;;;5.68;1.17;;;23.70;99.90;;;;;;5095237;28;20203;-86
2022/10/17 06:40:16;;;;;;;4.22;0.98;;;23.50;99.90;;;;;;5086859;28;20196;-86
2022/10/17 06:42:51;;;;;;;6.57;1.23;;;23.40;99.90;;;;;;5094213;28;20264;-85
2022/10/17 06:45:23;;;;;;;6.03;1.52;;;23.90;99.90;;;;;;5093929;28;20234;-86
2022/10/17 06:47:54;;;;;;;7.82;1.17;;;23.90;99.90;;;;;;5098218;28;20225;-85
2022/10/17 06:50:25;;;;;;;5.13;1.30;;;23.70;99.90;;;;;;5115285;28;20258;-85
2022/10/17 06:52:56;;;;;;;3.08;1.10;;;24.00;99.90;;;;;;5116085;28;20199;-85
2022/10/17 06:55:27;;;;;;;4.30;1.25;;;24.10;99.90;;;;;;5104298;28;20199;-86
2022/10/17 06:58:03;;;;;;;5.47;1.17;;;23.90;99.90;;;;;;5091139;28;20310;-86
2022/10/17 07:00:33;;;;;;;6.65;1.15;;;23.50;99.90;;;;;;5088246;28;20258;-86
2022/10/17 07:03:05;;;;;;;3.35;1.10;;;23.10;99.90;;;;;;5092958;28;20200;-85
2022/10/17 07:05:38;;;;;;;5.40;1.42;;;22.60;99.90;;;;;;5092563;28;20301;-86
2022/10/17 07:08:10;;;;;;;4.10;1.27;;;22.50;99.90;;;;;;5093553;28;20222;-85
2022/10/17 07:10:41;;;;;;;5.90;1.20;;;22.60;99.90;;;;;;5092783;28;20563;-86
2022/10/17 07:13:14;;;;;;;3.35;1.20;;;22.60;99.90;;;;;;5090607;28;20195;-86
2022/10/17 07:15:44;;;;;;;6.90;1.20;;;22.50;99.90;;;;;;5073776;28;20224;-85
2022/10/17 07:18:16;;;;;;;5.30;1.20;;;22.40;99.90;;;;;;5095590;28;20195;-85
2022/10/17 07:20:54;;;;;;;5.55;1.10;;;22.20;99.90;;;;;;5073423;28;20287;-85
2022/10/17 07:23:25;;;;;;;4.10;1.13;;;21.70;99.90;;;;;;5082937;28;20229;-86
2022/10/17 07:26:01;;;;;;;7.80;1.40;;;21.50;99.90;;;;;;5090600;28;20206;-86
2022/10/17 07:28:37;;;;;;;5.13;1.95;;;21.20;99.90;;;;;;5083846;28;20223;-86
2022/10/17 07:31:15;;;;;;;7.95;2.03;;;21.00;99.90;;;;;;5095067;28;20282;-85
2022/10/17 07:33:46;;;;;;;4.07;1.20;;;20.60;99.90;;;;;;5096423;28;20222;-86
2022/10/17 07:36:18;;;;;;;2.95;1.20;;;20.40;99.90;;;;;;5107346;28;20195;-86
2022/10/17 07:38:49;;;;;;;4.32;1.05;;;20.20;99.90;;;;;;5103204;28;20215;-85
2022/10/17 07:41:20;;;;;;;4.45;1.20;;;20.10;99.90;;;;;;5073649;28;20200;-86
2022/10/17 07:43:53;;;;;;;5.60;1.35;;;19.90;99.90;;;;;;5073612;28;20204;-86
2022/10/17 07:46:25;;;;;;;6.20;1.50;;;19.80;99.90;;;;;;5091251;28;20226;-85
2022/10/17 07:48:57;;;;;;;7.85;1.77;;;19.70;99.90;;;;;;5086096;28;20219;-86
2022/10/17 07:51:28;;;;;;;6.45;1.77;;;19.60;99.90;;;;;;5094222;28;20199;-84
2022/10/17 07:53:59;;;;;;;5.00;1.67;;;19.50;99.90;;;;;;5092936;28;20206;-85
2022/10/17 07:56:30;;;;;;;5.30;1.48;;;19.30;99.90;;;;;;5093595;28;20199;-86
2022/10/17 07:59:04;;;;;;;4.28;1.80;;;19.30;99.90;;;;;;5097641;28;20202;-86
2022/10/17 08:01:36;;;;;;;5.75;1.75;;;19.30;99.90;;;;;;5099718;28;20195;-86
2022/10/17 08:04:08;;;;;;;4.80;1.40;;;19.30;99.90;;;;;;5094964;28;20575;-87
2022/10/17 08:06:40;;;;;;;6.28;1.50;;;19.30;99.90;;;;;;5094392;28;20195;-88
2022/10/17 08:09:11;;;;;;;3.95;1.30;;;19.30;99.90;;;;;;5092133;28;20319;-86
2022/10/17 08:11:42;;;;;;;5.57;1.33;;;19.30;99.90;;;;;;5094923;28;20209;-85
2022/10/17 08:14:16;;;;;;;3.65;1.02;;;19.20;99.90;;;;;;5083785;28;20196;-85
2022/10/17 08:16:47;;;;;;;9.63;1.40;;;19.10;99.90;;;;;;5075871;28;20224;-83
2022/10/17 08:19:19;;;;;;;5.68;0.85;;;19.10;99.90;;;;;;5091271;28;20203;-85
2022/10/17 08:21:51;;;;;;;4.63;1.13;;;19.00;99.90;;;;;;5087298;28;20200;-83
2022/10/17 08:24:22;;;;;;;9.00;1.45;;;19.00;99.90;;;;;;5087225;28;20188;-81
2022/10/17 08:26:53;;;;;;;3.90;1.25;;;19.00;99.90;;;;;;5100177;28;20522;-84
2022/10/17 08:29:26;;;;;;;4.32;1.38;;;18.90;99.90;;;;;;5091243;28;20232;-83
2022/10/17 08:31:58;;;;;;;4.95;1.50;;;18.90;99.90;;;;;;5071624;28;20196;-84
2022/10/17 08:34:30;;;;;;;5.25;1.70;;;18.90;99.90;;;;;;5091220;28;20276;-86
2022/10/17 08:37:01;;;;;;;7.22;1.58;;;18.80;99.90;;;;;;5081519;28;20207;-86
2022/10/17 08:39:32;;;;;;;8.32;1.77;;;18.70;99.90;;;;;;5089644;28;20570;-86
2022/10/17 08:42:24;;;;;;;4.32;1.48;;;18.70;99.90;;;;;;5109011;28;20209;-84
2022/10/17 08:45:04;;;;;;;4.95;1.33;;;18.80;99.90;;;;;;5082381;28;20199;-84
2022/10/17 08:47:40;;;;;;;6.88;1.77;;;18.70;99.90;;;;;;5081587;28;20238;-84
2022/10/17 08:50:16;;;;;;;5.63;1.20;;;18.70;99.90;;;;;;5077899;28;20290;-83
2022/10/17 08:52:54;;;;;;;6.10;1.27;;;18.70;99.90;;;;;;5074233;28;20191;-85
2022/10/17 08:55:34;;;;;;;5.40;1.42;;;18.70;99.90;;;;;;5079292;28;20209;-85
2022/10/17 08:58:05;;;;;;;5.10;0.95;;;18.60;99.90;;;;;;5084693;28;20211;-83
2022/10/17 09:00:39;;;;;;;5.75;1.30;;;18.60;99.90;;;;;;5090018;28;20206;-84
2022/10/17 09:03:25;;;;;;;5.15;1.50;;;18.50;99.90;;;;;;5090435;28;20191;-84
2022/10/17 09:06:07;;;;;;;5.18;1.10;;;18.60;99.90;;;;;;5091098;28;20567;-83
2022/10/17 09:08:47;;;;;;;5.13;1.13;;;18.60;99.90;;;;;;5086458;28;20649;-83
2022/10/17 09:11:27;;;;;;;4.82;1.23;;;18.60;99.90;;;;;;5090521;28;20318;-83
2022/10/17 09:14:08;;;;;;;7.90;1.35;;;18.60;99.90;;;;;;5079320;28;20273;-84
2022/10/17 09:17:08;;;;;;;4.97;1.17;;;18.60;99.90;;;;;;5090073;28;20253;-84
2022/10/17 09:19:42;;;;;;;4.18;1.40;;;18.60;99.90;;;;;;5090396;28;20502;-84
2022/10/17 09:22:19;;;;;;;8.15;3.10;;;18.60;99.90;;;;;;5091914;28;20198;-85
2022/10/17 09:25:02;;;;;;;5.30;1.50;;;18.60;99.90;;;;;;5085159;28;20195;-86
2022/10/17 09:27:40;;;;;;;4.50;1.38;;;18.60;99.90;;;;;;5084374;28;20222;-85
2022/10/17 09:30:39;;;;;;;6.97;2.13;;;18.60;99.90;;;;;;5089658;28;20217;-86
2022/10/17 09:33:37;;;;;;;4.40;1.15;;;18.60;99.90;;;;;;5086919;28;20203;-86
2022/10/17 09:36:21;;;;;;;5.10;1.27;;;18.60;99.90;;;;;;5092003;28;20206;-84
2022/10/17 09:39:01;;;;;;;5.45;1.15;;;18.60;99.90;;;;;;5099216;28;20196;-84
2022/10/17 09:41:52;;;;;;;4.07;1.08;;;18.60;99.90;;;;;;5085050;28;20196;-84
2022/10/17 09:44:50;;;;;;;4.65;1.20;;;18.60;99.90;;;;;;5092723;28;20178;-85
2022/10/17 09:47:42;;;;;;;3.35;1.02;;;18.60;99.90;;;;;;5104587;28;20214;-85
2022/10/17 09:50:23;;;;;;;6.97;1.27;;;18.70;99.90;;;;;;5099825;28;20297;-86
2022/10/17 09:53:07;;;;;;;3.67;1.20;;;18.60;99.90;;;;;;5103207;28;20227;-85
2022/10/17 09:55:47;;;;;;;3.78;1.00;;;18.60;99.90;;;;;;5102840;28;20201;-85
2022/10/17 09:58:20;;;;;;;4.47;1.20;;;18.60;99.90;;;;;;5081485;28;20210;-83
2022/10/17 10:03:40;;;;;;;4.95;1.20;;;18.60;99.90;;;;;;5090008;28;20201;-83
2022/10/17 10:06:17;;;;;;;4.75;1.15;;;18.60;99.90;;;;;;5086297;28;20203;-84
2022/10/17 10:08:53;;;;;;;5.43;1.20;;;18.60;99.90;;;;;;5101281;28;20223;-84
2022/10/17 10:11:27;;;;;;;4.22;1.20;;;18.60;99.90;;;;;;5093603;28;20253;-82
2022/10/17 10:14:12;;;;;;;5.88;1.50;;;18.60;99.90;;;;;;5093992;28;20203;-84
2022/10/17 10:16:46;;;;;;;5.80;1.40;;;18.60;99.90;;;;;;5076221;28;20269;-84
2022/10/17 10:19:30;;;;;;;3.85;1.20;;;18.60;99.90;;;;;;5088393;28;20206;-83
2022/10/17 10:22:06;;;;;;;4.63;1.30;;;18.60;99.90;;;;;;5089353;28;20253;-82
2022/10/17 10:24:38;;;;;;;4.65;1.20;;;18.60;99.90;;;;;;5088971;28;20256;-86
2022/10/17 10:27:17;;;;;;;4.82;1.17;;;18.60;99.90;;;;;;5092210;28;20199;-85
2022/10/17 10:29:53;;;;;;;4.40;1.00;;;18.60;99.90;;;;;;5088167;28;20624;-83
2022/10/17 10:32:27;;;;;;;3.47;0.80;;;18.50;99.90;;;;;;5095793;28;20204;-82
2022/10/17 10:35:02;;;;;;;4.80;1.10;;;18.50;99.90;;;;;;5096892;28;20270;-82
2022/10/17 10:37:40;;;;;;;5.22;0.88;;;18.50;99.90;;;;;;5095275;28;20231;-82
2022/10/17 10:40:23;;;;;;;5.47;0.95;;;18.50;99.90;;;;;;5100978;28;20189;-83
2022/10/17 10:42:59;;;;;;;4.72;1.25;;;18.50;99.90;;;;;;5092539;28;20192;-84
2022/10/17 10:45:43;;;;;;;3.10;0.95;;;18.50;99.90;;;;;;5096322;28;20326;-83
2022/10/17 10:48:22;;;;;;;5.72;1.30;;;18.50;99.90;;;;;;5112543;28;20294;-83
2022/10/17 10:50:57;;;;;;;5.63;0.73;;;18.50;99.90;;;;;;5106811;28;20621;-80
2022/10/17 10:53:44;;;;;;;4.80;1.08;;;18.50;99.90;;;;;;5114554;28;20267;-83
2022/10/17 10:56:25;;;;;;;3.72;1.05;;;18.40;99.90;;;;;;5099100;28;20191;-82
2022/10/17 10:59:00;;;;;;;3.85;0.80;;;18.40;99.90;;;;;;5089000;28;20207;-85
2022/10/17 11:01:37;;;;;;;1.83;0.70;;;18.40;99.90;;;;;;5098000;28;20680;-83
2022/10/17 11:04:22;;;;;;;4.18;0.90;;;18.40;99.90;;;;;;5094496;28;20199;-83
2022/10/17 11:07:00;;;;;;;3.65;1.08;;;18.40;99.90;;;;;;5084072;28;20207;-83
2022/10/17 11:09:42;;;;;;;3.80;0.85;;;18.40;99.90;;;;;;5078741;28;20226;-84
2022/10/17 11:12:21;;;;;;;2.83;0.90;;;18.40;99.90;;;;;;5059802;28;20257;-84
2022/10/17 11:14:59;;;;;;;4.13;0.90;;;18.40;99.90;;;;;;5081283;28;20205;-85
2022/10/17 11:17:38;;;;;;;2.42;0.70;;;18.40;99.90;;;;;;5048286;28;20227;-86
2022/10/17 11:20:24;;;;;;;2.88;0.80;;;18.40;99.90;;;;;;5054999;28;20283;-86
2022/10/17 11:23:04;;;;;;;3.00;0.90;;;18.50;99.90;;;;;;5048180;28;20519;-86
2022/10/17 11:25:39;;;;;;;3.25;0.93;;;18.50;99.90;;;;;;5034832;28;20223;-86
2022/10/17 11:28:16;;;;;;;3.72;0.90;;;18.50;99.90;;;;;;5033640;28;20730;-85
2022/10/17 11:30:52;;;;;;;3.10;0.73;;;18.50;99.90;;;;;;5054290;28;20235;-84
2022/10/17 11:33:33;;;;;;;4.35;0.95;;;18.40;99.90;;;;;;5052531;28;20188;-84
2022/10/17 11:36:08;;;;;;;3.83;1.10;;;18.30;99.90;;;;;;5053828;28;20199;-85
2022/10/17 11:38:51;;;;;;;3.92;1.00;;;18.30;99.90;;;;;;5053737;28;20206;-85
2022/10/17 11:41:31;;;;;;;2.78;0.82;;;18.30;99.90;;;;;;5043138;28;20196;-84
2022/10/17 11:44:06;;;;;;;2.60;0.90;;;18.30;99.90;;;;;;5052985;28;20201;-82
2022/10/17 11:46:39;;;;;;;3.15;0.80;;;18.30;99.90;;;;;;5043697;28;20204;-83
2022/10/17 11:49:16;;;;;;;3.63;0.93;;;18.30;99.90;;;;;;5041647;28;20221;-83
2022/10/17 11:51:51;;;;;;;2.47;0.60;;;18.30;99.90;;;;;;5034969;28;20223;-84
2022/10/17 11:54:30;;;;;;;2.53;0.80;;;18.20;99.90;;;;;;5064444;28;20286;-84
2022/10/17 11:57:17;;;;;;;5.30;1.10;;;18.10;99.90;;;;;;5068614;28;20227;-82
2022/10/17 12:00:08;;;;;;;3.60;0.80;;;18.10;99.90;;;;;;5068533;28;20311;-85
2022/10/17 12:02:46;;;;;;;2.95;0.70;;;18.20;99.90;;;;;;5052040;28;20296;-83
2022/10/17 12:05:26;;;;;;;2.97;0.80;;;18.20;99.90;;;;;;5053047;28;20200;-84
2022/10/17 12:08:07;;;;;;;5.35;1.00;;;18.20;99.90;;;;;;5054005;28;20667;-86
2022/10/17 12:10:47;;;;;;;4.50;0.82;;;18.20;99.90;;;;;;5052431;28;20220;-85
2022/10/17 12:13:56;;;;;;;3.72;0.98;;;18.20;99.90;;;;;;5049924;28;20596;-85
2022/10/17 12:16:45;;;;;;;2.63;0.65;;;18.10;99.90;;;;;;5055767;28;20257;-85
2022/10/17 12:19:36;;;;;;;6.28;1.40;;;18.10;99.90;;;;;;5084609;28;20199;-84
2022/10/17 12:22:19;;;;;;;2.38;0.63;;;18.10;99.90;;;;;;5073150;28;20184;-85
2022/10/17 12:24:58;;;;;;;4.25;1.00;;;18.10;99.90;;;;;;5080627;28;20199;-84
2022/10/17 12:27:41;;;;;;;4.10;0.90;;;18.10;99.90;;;;;;5093390;28;20662;-84
2022/10/17 12:30:36;;;;;;;4.70;0.93;;;18.10;99.90;;;;;;5092446;28;20215;-84
2022/10/17 12:33:20;;;;;;;4.53;0.90;;;18.10;99.90;;;;;;5080428;28;20287;-84
2022/10/17 12:35:52;;;;;;;6.40;1.00;;;18.10;99.90;;;;;;5091108;28;20210;-84
2022/10/17 12:38:29;;;;;;;3.65;0.80;;;18.10;99.90;;;;;;5091292;28;20249;-83
2022/10/17 12:41:04;;;;;;;6.03;1.13;;;18.10;99.90;;;;;;5088877;28;20226;-83
2022/10/17 12:43:53;;;;;;;4.70;0.80;;;18.00;99.90;;;;;;5085713;28;20202;-83
2022/10/17 12:47:23;;;;;;;5.47;1.00;;;18.10;99.90;;;;;;5079668;28;20199;-82
2022/10/17 12:49:54;;;;;;;3.45;0.70;;;18.10;99.90;;;;;;5086055;28;20223;-83
2022/10/17 12:52:50;;;;;;;1.98;0.73;;;18.10;99.90;;;;;;5096884;28;20274;-83
2022/10/17 12:55:21;;;;;;;2.60;0.77;;;18.00;99.90;;;;;;5094129;28;20268;-83
2022/10/17 12:57:58;;;;;;;3.45;0.70;;;18.00;99.90;;;;;;5080582;28;20199;-82
2022/10/17 13:00:35;;;;;;;3.42;1.08;;;18.00;99.90;;;;;;5075401;28;20180;-82
2022/10/17 13:03:14;;;;;;;3.65;0.85;;;18.00;99.90;;;;;;5097470;28;20203;-83
2022/10/17 13:05:49;;;;;;;3.97;0.80;;;18.00;99.90;;;;;;5085421;28;20247;-83
2022/10/17 13:08:23;;;;;;;3.75;0.80;;;18.00;99.90;;;;;;5073797;28;20290;-83
2022/10/17 13:10:56;;;;;;;5.72;0.90;;;17.90;99.90;;;;;;5073460;28;20311;-83
2022/10/17 13:13:37;;;;;;;3.47;0.98;;;17.90;99.90;;;;;;5079249;28;20249;-83
2022/10/17 13:16:09;;;;;;;6.03;1.00;;;17.90;99.90;;;;;;5073124;28;20234;-83
2022/10/17 13:18:42;;;;;;;3.25;0.75;;;17.90;99.90;;;;;;5092369;28;20677;-83
2022/10/17 13:21:18;;;;;;;3.53;1.30;;;17.90;99.90;;;;;;5092099;28;20680;-83
2022/10/17 13:23:51;;;;;;;3.58;0.82;;;17.80;99.90;;;;;;5092476;28;20195;-84
2022/10/17 13:26:27;;;;;;;3.65;0.80;;;17.80;99.90;;;;;;5093517;28;20274;-83
2022/10/17 13:29:11;;;;;;;3.30;0.85;;;17.80;99.90;;;;;;5091309;28;20549;-83
2022/10/17 13:31:44;;;;;;;4.05;1.05;;;17.80;99.90;;;;;;5077213;28;20199;-83
2022/10/17 13:34:22;;;;;;;3.42;0.80;;;17.80;99.90;;;;;;5090273;28;20567;-84
2022/10/17 13:36:59;;;;;;;2.55;0.70;;;17.80;99.90;;;;;;5091314;28;20198;-83
2022/10/17 13:39:35;;;;;;;4.20;0.70;;;17.80;99.90;;;;;;5079184;28;20196;-83
2022/10/17 13:42:07;;;;;;;6.28;0.98;;;17.80;99.90;;;;;;5085177;28;20194;-84
2022/10/17 13:44:38;;;;;;;3.90;1.00;;;17.80;99.90;;;;;;5089109;28;20279;-83